KSFZ/SFZ METAR and TAF weather

Enter ICAO airport designator
Station Type Date Time Source
KSFZ METAR 2019/02/20 22:56 UTC NOAA

KSFZ 202256Z AUTO 21004KT 9SM -SN FEW050 OVC065 M03/M12 A3041 RMK AO2 SLP250 P0000 T10331117 FZRANO


Station Type Date Time Source
KSFZ Decoded METAR 2019/02/20 22:56 UTC NOAA

Pawtucket, North Central State Airport, RI, United States (KSFZ) 41-55N 071-30W
Feb 20, 2019 - 05:56 PM EST / 2019.02.20 2256 UTC
Wind: from the SSW (210 degrees) at 5 MPH (4 KT):0
Visibility: 9 mile(s):0
Sky conditions: overcast
Weather: light snow
Precipitation last hour: A trace
Temperature: 26.1 F (-3.3 C)
Windchill: 19 F (-7 C):1
Dew Point: 10.9 F (-11.7 C)
Relative Humidity: 52%
Pressure (altimeter): 30.41 in. Hg (1029 hPa)
ob: KSFZ 202256Z AUTO 21004KT 9SM -SN FEW050 OVC065 M03/M12 A3041 RMK AO2 SLP250 P0000 T10331117 FZRANO
cycle: 23

Station Type Date Time Source
KSFZ TAF UTC NOAA

Error!


Example: see airport list